Time;durP1;ratioP1;P1;durP2;ratioP2;P2;SDS_P1;SDS_P2;PMS_P1;PMS_P2;Temp;Humidity;BMP_temperature;BMP_pressure;BME280_temperature;BME280_humidity;BME280_pressure;Samples;Min_cycle;Max_cycle;Signal;HPM_P1;HPM_P2
2021/06/24 00:00:26;;;;;;;1.73;1.30;;;;;;;-146.52;100.00;63329.72;1016761;29;20032;-81
2021/06/24 00:01:02;;;;;;;4.63;1.40;;;;;;;-146.52;100.00;63329.72;1015347;29;20034;-82
2021/06/24 00:01:34;;;;;;;2.20;1.17;;;;;;;-146.52;100.00;63329.72;1016707;29;20055;-82
2021/06/24 00:02:04;;;;;;;2.15;0.88;;;;;;;-146.52;100.00;63329.72;1016542;29;20510;-81
2021/06/24 00:02:35;;;;;;;3.50;1.40;;;;;;;-146.52;100.00;63329.72;1016761;29;20028;-81
2021/06/24 00:03:06;;;;;;;3.72;1.40;;;;;;;-146.52;100.00;63329.72;1016603;29;20115;-80
2021/06/24 00:03:36;;;;;;;1.90;1.17;;;;;;;-146.52;100.00;63329.72;1016765;29;20028;-81
2021/06/24 00:04:07;;;;;;;3.25;1.20;;;;;;;-146.52;100.00;63329.72;1020821;29;20023;-80
2021/06/24 00:04:38;;;;;;;2.03;1.00;;;;;;;-146.52;100.00;63329.72;1021173;29;20024;-81
2021/06/24 00:05:09;;;;;;;2.15;1.08;;;;;;;-146.52;100.00;63329.72;1020688;29;20135;-81
2021/06/24 00:05:40;;;;;;;3.13;1.77;;;;;;;-146.52;100.00;63329.72;1017491;29;20024;-81
2021/06/24 00:06:11;;;;;;;1.63;1.20;;;;;;;-146.52;100.00;63329.72;1018092;29;20054;-81
2021/06/24 00:06:41;;;;;;;2.17;1.17;;;;;;;-146.52;100.00;63329.72;1009757;29;20027;-81
2021/06/24 00:07:12;;;;;;;2.45;1.45;;;;;;;-146.52;100.00;63329.72;1017835;29;20029;-81
2021/06/24 00:07:42;;;;;;;3.20;1.40;;;;;;;-146.52;100.00;63329.72;1013788;29;20047;-81
2021/06/24 00:08:13;;;;;;;2.65;1.23;;;;;;;-146.52;100.00;63329.72;1017745;29;20514;-83
2021/06/24 00:08:44;;;;;;;2.45;1.30;;;;;;;-146.52;100.00;63329.72;1017712;29;20024;-82
2021/06/24 00:09:14;;;;;;;3.47;1.40;;;;;;;-146.52;100.00;63329.72;1017901;29;20070;-82
2021/06/24 00:09:45;;;;;;;3.38;1.38;;;;;;;-146.52;100.00;63329.72;1017957;29;20453;-82
2021/06/24 00:10:15;;;;;;;4.05;1.63;;;;;;;-146.52;100.00;63329.72;1018107;29;20020;-82
2021/06/24 00:10:46;;;;;;;2.13;1.48;;;;;;;-146.52;100.00;63329.72;1017605;29;20103;-81
2021/06/24 00:11:17;;;;;;;2.83;1.50;;;;;;;-146.52;100.00;63329.72;1017348;29;20020;-82
2021/06/24 00:11:47;;;;;;;3.70;1.23;;;;;;;-146.52;100.00;63329.72;1017700;29;20047;-82
2021/06/24 00:12:21;;;;;;;3.92;1.55;;;;;;;-146.52;100.00;63329.72;1021817;29;20098;-82
2021/06/24 00:12:51;;;;;;;2.45;1.52;;;;;;;-146.52;100.00;63329.72;1021857;29;20124;-81
2021/06/24 00:13:22;;;;;;;3.25;1.90;;;;;;;-146.52;100.00;63329.72;1025480;29;20046;-80
2021/06/24 00:13:52;;;;;;;3.78;1.60;;;;;;;-146.52;100.00;63329.72;1029124;28;20027;-82
2021/06/24 00:14:23;;;;;;;2.38;1.45;;;;;;;-146.52;100.00;63329.72;1021317;29;20027;-81
2021/06/24 00:14:54;;;;;;;3.03;1.60;;;;;;;-146.52;100.00;63329.72;1009500;29;20127;-81
2021/06/24 00:15:24;;;;;;;3.90;1.63;;;;;;;-146.52;100.00;63329.72;1017283;29;20083;-81
2021/06/24 00:15:55;;;;;;;3.75;1.50;;;;;;;-146.52;100.00;63329.72;1015713;29;20107;-81
2021/06/24 00:16:26;;;;;;;4.53;1.77;;;;;;;-146.52;100.00;63329.72;1013740;29;20025;-81
2021/06/24 00:16:56;;;;;;;3.58;1.77;;;;;;;-146.52;100.00;63329.72;1019560;29;20044;-80
2021/06/24 00:17:27;;;;;;;1.85;1.40;;;;;;;-146.52;100.00;63329.72;1020335;29;20447;-80
2021/06/24 00:17:57;;;;;;;3.65;1.92;;;;;;;-146.52;100.00;63329.72;1016005;29;20534;-81
2021/06/24 00:18:28;;;;;;;3.17;1.30;;;;;;;-146.52;100.00;63329.72;1015978;29;20044;-81
2021/06/24 00:18:59;;;;;;;3.78;1.92;;;;;;;-146.52;100.00;63329.72;1023114;29;20056;-82
2021/06/24 00:19:29;;;;;;;2.60;1.55;;;;;;;-146.52;100.00;63329.72;1022567;29;20116;-82
2021/06/24 00:20:00;;;;;;;3.28;1.75;;;;;;;-146.52;100.00;63329.72;1018898;29;20035;-81
2021/06/24 00:20:31;;;;;;;3.63;1.52;;;;;;;-146.52;100.00;63329.72;1022577;29;20108;-82
2021/06/24 00:21:01;;;;;;;3.17;1.50;;;;;;;-146.52;100.00;63329.72;1011714;29;20021;-81
2021/06/24 00:21:32;;;;;;;1.95;1.40;;;;;;;-146.52;100.00;63329.72;1022799;29;20027;-82
2021/06/24 00:22:03;;;;;;;3.53;1.85;;;;;;;-146.52;100.00;63329.72;1026847;29;20102;-82
2021/06/24 00:22:33;;;;;;;3.33;1.48;;;;;;;-146.52;100.00;63329.72;1019089;29;20032;-81
2021/06/24 00:23:04;;;;;;;2.55;1.48;;;;;;;-146.52;100.00;63329.72;1022508;29;20034;-81
2021/06/24 00:23:35;;;;;;;3.63;1.63;;;;;;;-146.52;100.00;63329.72;1018110;29;20027;-81
2021/06/24 00:24:06;;;;;;;3.45;1.45;;;;;;;-146.52;100.00;63329.72;1014630;29;20099;-81
2021/06/24 00:24:37;;;;;;;2.90;1.60;;;;;;;-146.52;100.00;63329.72;1022405;29;20074;-81
2021/06/24 00:25:07;;;;;;;3.90;1.60;;;;;;;-146.52;100.00;63329.72;1022324;29;20087;-82
2021/06/24 00:25:38;;;;;;;3.53;1.85;;;;;;;-146.52;100.00;63329.72;1018927;29;20016;-82
2021/06/24 00:26:09;;;;;;;3.05;1.85;;;;;;;-146.52;100.00;63329.72;1020743;29;20015;-81
2021/06/24 00:26:39;;;;;;;3.40;1.77;;;;;;;-146.52;100.00;63329.72;1017588;29;20107;-81
2021/06/24 00:27:10;;;;;;;1.92;1.50;;;;;;;-146.52;100.00;63329.72;1013355;29;20024;-81
2021/06/24 00:27:41;;;;;;;2.60;1.65;;;;;;;-146.52;100.00;63329.72;1029225;28;20019;-81
2021/06/24 00:28:15;;;;;;;4.05;1.75;;;;;;;-146.52;100.00;63329.72;1017317;29;20016;-81
2021/06/24 00:28:46;;;;;;;4.18;1.42;;;;;;;-146.52;100.00;63329.72;1017677;29;20016;-81
2021/06/24 00:29:16;;;;;;;2.03;1.52;;;;;;;-146.52;100.00;63329.72;1013572;29;20021;-81
2021/06/24 00:29:47;;;;;;;3.33;1.60;;;;;;;-146.52;100.00;63329.72;1021634;29;20016;-81
2021/06/24 00:30:18;;;;;;;2.95;1.77;;;;;;;-146.52;100.00;63329.72;1017516;29;20026;-81
2021/06/24 00:30:49;;;;;;;2.67;1.60;;;;;;;-146.52;100.00;63329.72;1009679;29;20021;-81
2021/06/24 00:31:19;;;;;;;3.90;1.70;;;;;;;-146.52;100.00;63329.72;1014878;29;20471;-81
2021/06/24 00:31:50;;;;;;;2.35;1.67;;;;;;;-146.52;100.00;63329.72;1026201;29;20087;-81
2021/06/24 00:32:21;;;;;;;3.67;1.60;;;;;;;-146.52;100.00;63329.72;1017862;29;20038;-82
2021/06/24 00:32:51;;;;;;;2.42;1.33;;;;;;;-146.52;100.00;63329.72;1017937;29;20497;-82
2021/06/24 00:33:22;;;;;;;2.28;1.60;;;;;;;-146.52;100.00;63329.72;1025677;29;20490;-81
2021/06/24 00:33:53;;;;;;;3.33;1.63;;;;;;;-146.52;100.00;63329.72;1017996;29;20020;-82
2021/06/24 00:34:23;;;;;;;3.28;1.70;;;;;;;-146.52;100.00;63329.72;1017907;29;20024;-81
2021/06/24 00:34:59;;;;;;;2.33;1.58;;;;;;;-146.52;100.00;63329.72;1017589;29;20019;-82
2021/06/24 00:35:30;;;;;;;2.65;1.67;;;;;;;-146.52;100.00;63329.72;1025395;29;20023;-81
2021/06/24 00:36:01;;;;;;;4.28;1.70;;;;;;;-146.52;100.00;63329.72;1017640;29;20166;-82
2021/06/24 00:36:31;;;;;;;3.80;1.80;;;;;;;-146.52;100.00;63329.72;1014159;29;20017;-81
2021/06/24 00:37:02;;;;;;;3.33;1.85;;;;;;;-146.52;100.00;63329.72;1013914;29;20012;-82
2021/06/24 00:37:34;;;;;;;3.15;2.00;;;;;;;-146.52;100.00;63329.72;1013522;29;20119;-80
2021/06/24 00:38:06;;;;;;;2.90;1.92;;;;;;;-146.52;100.00;63329.72;1013553;29;20065;-81
2021/06/24 00:38:36;;;;;;;3.40;1.98;;;;;;;-146.52;100.00;63329.72;1021411;29;20099;-81
2021/06/24 00:39:07;;;;;;;3.15;2.30;;;;;;;-146.52;100.00;63329.72;1021649;29;20505;-81
2021/06/24 00:39:37;;;;;;;1.92;1.35;;;;;;;-146.52;100.00;63329.72;1021838;29;20030;-82
2021/06/24 00:40:09;;;;;;;4.78;2.47;;;;;;;-146.52;100.00;63329.72;1017480;29;20111;-82
2021/06/24 00:40:40;;;;;;;3.67;2.10;;;;;;;-146.52;100.00;63329.72;1013289;29;20048;-81
2021/06/24 00:41:11;;;;;;;3.55;2.10;;;;;;;-146.52;100.00;63329.72;1017323;29;20024;-80
2021/06/24 00:41:41;;;;;;;2.97;1.65;;;;;;;-146.52;100.00;63329.72;1018172;29;20023;-81
2021/06/24 00:42:12;;;;;;;2.85;1.75;;;;;;;-146.52;100.00;63329.72;1025547;29;20079;-81
2021/06/24 00:42:44;;;;;;;2.45;1.73;;;;;;;-146.52;100.00;63329.72;1025594;29;20020;-81
2021/06/24 00:43:17;;;;;;;2.47;1.90;;;;;;;-146.52;100.00;63329.72;1017752;29;20502;-81
2021/06/24 00:43:47;;;;;;;5.45;2.13;;;;;;;-146.52;100.00;63329.72;1013513;29;20020;-81
2021/06/24 00:44:18;;;;;;;5.50;2.78;;;;;;;-146.52;100.00;63329.72;1017581;29;20020;-81
2021/06/24 00:44:49;;;;;;;3.78;2.47;;;;;;;-146.52;100.00;63329.72;1025361;29;20023;-81
2021/06/24 00:45:19;;;;;;;3.03;2.03;;;;;;;-146.52;100.00;63329.72;1021297;29;20442;-81
2021/06/24 00:45:50;;;;;;;4.45;2.20;;;;;;;-146.52;100.00;63329.72;1021742;29;20115;-81
2021/06/24 00:46:21;;;;;;;3.47;2.17;;;;;;;-146.52;100.00;63329.72;1013681;29;20089;-81
2021/06/24 00:46:52;;;;;;;4.30;2.10;;;;;;;-146.52;100.00;63329.72;1017605;29;20028;-80
2021/06/24 00:47:23;;;;;;;6.78;3.17;;;;;;;-146.52;100.00;63329.72;1017410;29;20093;-81
2021/06/24 00:47:53;;;;;;;6.47;2.83;;;;;;;-146.52;100.00;63329.72;1020800;29;20585;-81
2021/06/24 00:48:24;;;;;;;3.80;2.40;;;;;;;-146.52;100.00;63329.72;1016379;29;20099;-81
2021/06/24 00:48:56;;;;;;;3.60;2.17;;;;;;;-146.52;100.00;63329.72;1016807;29;20208;-81
2021/06/24 00:49:27;;;;;;;5.18;2.30;;;;;;;-146.52;100.00;63329.72;1013076;29;20040;-81
2021/06/24 00:49:58;;;;;;;3.47;2.30;;;;;;;-146.52;100.00;63329.72;1020727;29;20122;-82
2021/06/24 00:50:28;;;;;;;6.38;2.60;;;;;;;-146.52;100.00;63329.72;1016534;29;20398;-81
2021/06/24 00:50:59;;;;;;;5.45;2.80;;;;;;;-146.52;100.00;63329.72;1016340;29;20024;-81
2021/06/24 00:51:30;;;;;;;4.95;2.55;;;;;;;-146.52;100.00;63329.72;1015535;29;20032;-81
2021/06/24 00:52:00;;;;;;;4.25;2.28;;;;;;;-146.52;100.00;63329.72;1020343;29;20020;-80
2021/06/24 00:52:31;;;;;;;4.78;2.35;;;;;;;-146.52;100.00;63329.72;1020225;29;20086;-81
2021/06/24 00:53:02;;;;;;;3.55;2.50;;;;;;;-146.52;100.00;63329.72;1012458;29;20024;-80
2021/06/24 00:53:33;;;;;;;4.22;2.40;;;;;;;-146.52;100.00;63329.72;1012470;29;20029;-81
2021/06/24 00:54:04;;;;;;;6.53;2.78;;;;;;;-146.52;100.00;63329.72;1012475;29;20124;-82
2021/06/24 00:54:34;;;;;;;3.95;2.47;;;;;;;-146.52;100.00;63329.72;1012363;29;20420;-83
2021/06/24 00:55:06;;;;;;;4.88;2.63;;;;;;;-146.52;100.00;63329.72;1008514;29;20020;-81
2021/06/24 00:55:40;;;;;;;4.63;2.20;;;;;;;-146.52;100.00;63329.72;1008573;29;20076;-81
2021/06/24 00:56:10;;;;;;;3.58;2.45;;;;;;;-146.52;100.00;63329.72;1014945;29;20403;-82
2021/06/24 00:56:41;;;;;;;2.45;2.03;;;;;;;-146.52;100.00;63329.72;1016440;29;20123;-83
2021/06/24 00:57:12;;;;;;;5.43;2.60;;;;;;;-146.52;100.00;63329.72;1020187;29;20119;-82
2021/06/24 00:57:42;;;;;;;4.45;2.45;;;;;;;-146.52;100.00;63329.72;1028253;28;20370;-82
2021/06/24 00:58:25;;;;;;;4.50;2.60;;;;;;;-146.52;100.00;63329.72;1020316;29;20023;-80
2021/06/24 00:58:56;;;;;;;4.80;2.38;;;;;;;-146.52;100.00;63329.72;1020455;29;20016;-81
2021/06/24 00:59:26;;;;;;;4.38;2.42;;;;;;;-146.52;100.00;63329.72;1024349;29;20047;-82
2021/06/24 00:59:57;;;;;;;4.43;2.78;;;;;;;-146.52;100.00;63329.72;1020305;29;20031;-83
2021/06/24 01:00:27;;;;;;;4.25;2.80;;;;;;;-146.52;100.00;63329.72;1016616;29;20038;-83
2021/06/24 01:00:58;;;;;;;4.70;2.67;;;;;;;-146.52;100.00;63329.72;1020156;29;20024;-82
2021/06/24 01:01:30;;;;;;;4.50;2.42;;;;;;;-146.52;100.00;63329.72;1016574;29;20118;-84
2021/06/24 01:02:02;;;;;;;5.07;2.72;;;;;;;-146.52;100.00;63329.72;1008629;29;20024;-83
2021/06/24 01:02:33;;;;;;;5.05;2.78;;;;;;;-146.52;100.00;63329.72;1016201;29;20092;-80
2021/06/24 01:03:04;;;;;;;4.45;2.40;;;;;;;-146.52;100.00;63329.72;1020375;29;20083;-81
2021/06/24 01:03:34;;;;;;;3.75;2.30;;;;;;;-146.52;100.00;63329.72;1012764;29;20159;-81
2021/06/24 01:04:05;;;;;;;5.47;2.60;;;;;;;-146.52;100.00;63329.72;1016297;29;20163;-80
2021/06/24 01:04:35;;;;;;;4.72;2.63;;;;;;;-146.52;100.00;63329.72;1016762;29;20048;-81
2021/06/24 01:05:07;;;;;;;4.78;2.90;;;;;;;-146.52;100.00;63329.72;1004790;29;20040;-81
2021/06/24 01:05:37;;;;;;;4.20;2.50;;;;;;;-146.52;100.00;63329.72;1004868;29;20048;-81
2021/06/24 01:06:08;;;;;;;3.95;2.90;;;;;;;-146.52;100.00;63329.72;1008654;29;20048;-80
2021/06/24 01:06:39;;;;;;;4.80;2.47;;;;;;;-146.52;100.00;63329.72;1008939;29;20035;-82
2021/06/24 01:07:09;;;;;;;4.85;2.92;;;;;;;-146.52;100.00;63329.72;1016514;29;20099;-82
2021/06/24 01:07:40;;;;;;;4.60;2.80;;;;;;;-146.52;100.00;63329.72;1012590;29;20039;-81
2021/06/24 01:08:11;;;;;;;4.10;2.70;;;;;;;-146.52;100.00;63329.72;1016391;29;20149;-82
2021/06/24 01:08:41;;;;;;;4.60;2.65;;;;;;;-146.52;100.00;63329.72;1016740;29;20028;-82
2021/06/24 01:09:12;;;;;;;4.80;2.90;;;;;;;-146.52;100.00;63329.72;1013496;29;20103;-81
2021/06/24 01:09:43;;;;;;;4.85;2.90;;;;;;;-146.52;100.00;63329.72;1024222;28;20027;-80
2021/06/24 01:10:13;;;;;;;5.20;3.15;;;;;;;-146.52;100.00;63329.72;1020448;29;20061;-81
2021/06/24 01:10:45;;;;;;;4.70;3.20;;;;;;;-146.52;100.00;63329.72;1016714;29;20031;-81
2021/06/24 01:11:16;;;;;;;5.32;3.45;;;;;;;-146.52;100.00;63329.72;1006638;29;20107;-81
2021/06/24 01:11:47;;;;;;;5.13;3.10;;;;;;;-146.52;100.00;63329.72;1016681;29;20032;-81
2021/06/24 01:12:18;;;;;;;6.47;3.30;;;;;;;-146.52;100.00;63329.72;1012786;29;20499;-81
2021/06/24 01:12:49;;;;;;;6.38;3.25;;;;;;;-146.52;100.00;63329.72;1012651;29;20032;-80
2021/06/24 01:13:20;;;;;;;5.40;3.33;;;;;;;-146.52;100.00;63329.72;1016211;29;20506;-82
2021/06/24 01:13:51;;;;;;;4.60;3.03;;;;;;;-146.52;100.00;63329.72;1016617;29;20032;-80
2021/06/24 01:14:24;;;;;;;5.93;3.17;;;;;;;-146.52;100.00;63329.72;1016638;29;20028;-81
2021/06/24 01:14:54;;;;;;;4.90;3.33;;;;;;;-146.52;100.00;63329.72;1020384;29;20031;-81
2021/06/24 01:15:25;;;;;;;6.20;3.10;;;;;;;-146.52;100.00;63329.72;1016209;29;20577;-82
2021/06/24 01:15:56;;;;;;;5.65;3.10;;;;;;;-146.52;100.00;63329.72;1013035;29;20024;-83
2021/06/24 01:16:26;;;;;;;5.22;3.50;;;;;;;-146.52;100.00;63329.72;1004540;29;20180;-82
2021/06/24 01:16:57;;;;;;;6.15;3.20;;;;;;;-146.52;100.00;63329.72;1016337;29;20095;-82
2021/06/24 01:17:27;;;;;;;5.90;3.00;;;;;;;-146.52;100.00;63329.72;1012206;29;20108;-82
2021/06/24 01:17:58;;;;;;;7.38;3.20;;;;;;;-146.52;100.00;63329.72;1020049;29;20168;-80
2021/06/24 01:18:29;;;;;;;6.15;3.30;;;;;;;-146.52;100.00;63329.72;1016124;29;20398;-80
2021/06/24 01:18:59;;;;;;;6.68;3.20;;;;;;;-146.52;100.00;63329.72;1008542;29;20096;-80
2021/06/24 01:19:30;;;;;;;5.95;3.22;;;;;;;-146.52;100.00;63329.72;1012311;29;20039;-81
2021/06/24 01:20:01;;;;;;;3.75;3.08;;;;;;;-146.52;100.00;63329.72;1020357;29;20474;-81
2021/06/24 01:20:32;;;;;;;5.35;2.50;;;;;;;-146.52;100.00;63329.72;1016303;29;20429;-81
2021/06/24 01:21:03;;;;;;;5.13;2.70;;;;;;;-146.52;100.00;63329.72;1009088;29;20017;-81
2021/06/24 01:21:34;;;;;;;5.97;3.47;;;;;;;-146.52;100.00;63329.72;1012771;29;20031;-81
2021/06/24 01:22:04;;;;;;;4.75;2.75;;;;;;;-146.52;100.00;63329.72;1016544;29;20028;-82
2021/06/24 01:22:35;;;;;;;4.93;2.72;;;;;;;-146.52;100.00;63329.72;1020981;29;20030;-81
2021/06/24 01:23:06;;;;;;;5.70;2.85;;;;;;;-146.52;100.00;63329.72;1017489;29;20368;-80
2021/06/24 01:23:41;;;;;;;4.85;2.72;;;;;;;-146.52;100.00;63329.72;1017458;29;20028;-82
2021/06/24 01:24:11;;;;;;;5.13;2.40;;;;;;;-146.52;100.00;63329.72;1017340;29;20032;-80
2021/06/24 01:24:42;;;;;;;3.45;2.22;;;;;;;-146.52;100.00;63329.72;1016969;29;20055;-80
2021/06/24 01:25:13;;;;;;;3.97;2.50;;;;;;;-146.52;100.00;63329.72;1017325;29;20035;-80
2021/06/24 01:25:43;;;;;;;4.68;2.78;;;;;;;-146.52;100.00;63329.72;1013111;29;20076;-80
2021/06/24 01:26:14;;;;;;;4.47;2.40;;;;;;;-146.52;100.00;63329.72;1018757;29;20030;-81
2021/06/24 01:26:45;;;;;;;3.33;2.10;;;;;;;-146.52;100.00;63329.72;1025227;29;20023;-80
2021/06/24 01:27:16;;;;;;;3.97;2.10;;;;;;;-146.52;100.00;63329.72;1017565;29;20465;-81
2021/06/24 01:27:46;;;;;;;4.25;2.30;;;;;;;-146.52;100.00;63329.72;1013647;29;20036;-79
2021/06/24 01:28:17;;;;;;;4.88;2.03;;;;;;;-146.52;100.00;63329.72;1016113;29;20123;-84
2021/06/24 01:28:48;;;;;;;3.83;2.13;;;;;;;-146.52;100.00;63329.72;1013192;29;20459;-83
2021/06/24 01:29:18;;;;;;;2.72;2.10;;;;;;;-146.52;100.00;63329.72;1017320;29;20034;-84
2021/06/24 01:29:49;;;;;;;5.57;2.40;;;;;;;-146.52;100.00;63329.72;1013721;29;20024;-82
2021/06/24 01:30:20;;;;;;;5.80;2.47;;;;;;;-146.52;100.00;63329.72;1021400;29;20027;-82
2021/06/24 01:30:50;;;;;;;3.25;2.00;;;;;;;-146.52;100.00;63329.72;1013435;29;20032;-81
2021/06/24 01:31:21;;;;;;;5.88;2.78;;;;;;;-146.52;100.00;63329.72;1013503;29;20091;-81
2021/06/24 01:31:52;;;;;;;4.13;2.25;;;;;;;-146.52;100.00;63329.72;1013532;29;20035;-81
2021/06/24 01:32:22;;;;;;;7.00;1.92;;;;;;;-146.52;100.00;63329.72;1017211;29;20028;-81
2021/06/24 01:32:53;;;;;;;3.72;2.00;;;;;;;-146.52;100.00;63329.72;1009827;29;20064;-80
2021/06/24 01:33:24;;;;;;;3.90;2.20;;;;;;;-146.52;100.00;63329.72;1017689;29;20028;-81
2021/06/24 01:33:55;;;;;;;6.30;2.22;;;;;;;-146.52;100.00;63329.72;1009612;29;20029;-82
2021/06/24 01:34:25;;;;;;;2.85;1.75;;;;;;;-146.52;100.00;63329.72;1009496;29;20417;-81
2021/06/24 01:34:56;;;;;;;2.97;1.83;;;;;;;-146.52;100.00;63329.72;1013389;29;20513;-81
2021/06/24 01:35:29;;;;;;;4.93;1.92;;;;;;;-146.52;100.00;63329.72;1013721;29;20029;-81
2021/06/24 01:36:01;;;;;;;4.78;2.00;;;;;;;-146.52;100.00;63329.72;1021927;29;20024;-82
2021/06/24 01:36:34;;;;;;;2.40;1.80;;;;;;;-146.52;100.00;63329.72;1022035;29;20023;-81
2021/06/24 01:37:06;;;;;;;3.10;1.67;;;;;;;-146.52;100.00;63329.72;1013756;29;20088;-81
2021/06/24 01:37:37;;;;;;;3.72;1.92;;;;;;;-146.52;100.00;63329.72;1017515;29;20039;-81
2021/06/24 01:38:09;;;;;;;3.85;1.80;;;;;;;-146.52;100.00;63329.72;1015845;29;20117;-81
2021/06/24 01:38:43;;;;;;;2.30;1.48;;;;;;;-146.52;100.00;63329.72;1013909;29;20028;-82
2021/06/24 01:39:14;;;;;;;3.35;1.60;;;;;;;-146.52;100.00;63329.72;1017717;29;20026;-81
2021/06/24 01:39:47;;;;;;;3.53;1.98;;;;;;;-146.52;100.00;63329.72;1013373;29;20031;-81
2021/06/24 01:40:19;;;;;;;3.97;1.80;;;;;;;-146.52;100.00;63329.72;1022681;29;20031;-82
2021/06/24 01:40:51;;;;;;;3.13;1.90;;;;;;;-146.52;100.00;63329.72;1022030;29;20450;-80
2021/06/24 01:41:22;;;;;;;4.00;1.60;;;;;;;-146.52;100.00;63329.72;1021550;29;20059;-81
2021/06/24 01:41:59;;;;;;;2.72;1.73;;;;;;;-146.52;100.00;63329.72;1021244;29;20027;-80
2021/06/24 01:42:30;;;;;;;4.25;1.77;;;;;;;-146.52;100.00;63329.72;1017296;29;20024;-80
2021/06/24 01:43:02;;;;;;;3.40;1.77;;;;;;;-146.52;100.00;63329.72;1021099;29;20024;-80
2021/06/24 01:43:34;;;;;;;4.38;1.60;;;;;;;-146.52;100.00;63329.72;1017417;29;20083;-80
2021/06/24 01:44:05;;;;;;;2.20;1.60;;;;;;;-146.52;100.00;63329.72;1021311;29;20026;-80
2021/06/24 01:44:36;;;;;;;2.20;1.67;;;;;;;-146.52;100.00;63329.72;1017388;29;20071;-81
2021/06/24 01:45:09;;;;;;;2.78;1.42;;;;;;;-146.52;100.00;63329.72;1017770;29;20380;-80
2021/06/24 01:45:47;;;;;;;4.90;1.88;;;;;;;-146.52;100.00;63329.72;1021490;29;20019;-80
2021/06/24 01:46:17;;;;;;;2.75;1.60;;;;;;;-146.52;100.00;63329.72;1017218;29;20032;-80
2021/06/24 01:46:48;;;;;;;2.85;1.60;;;;;;;-146.52;100.00;63329.72;1017594;29;20344;-81
2021/06/24 01:47:18;;;;;;;6.18;1.88;;;;;;;-146.52;100.00;63329.72;1025375;29;20118;-81
2021/06/24 01:47:49;;;;;;;2.45;1.52;;;;;;;-146.52;100.00;63329.72;1013560;29;20112;-80
2021/06/24 01:48:20;;;;;;;3.15;1.45;;;;;;;-146.52;100.00;63329.72;1021519;29;20031;-81
2021/06/24 01:48:51;;;;;;;3.78;1.75;;;;;;;-146.52;100.00;63329.72;1013488;29;20028;-81
2021/06/24 01:49:21;;;;;;;3.78;1.60;;;;;;;-146.52;100.00;63329.72;1021261;29;20087;-83
2021/06/24 01:49:52;;;;;;;2.22;1.45;;;;;;;-146.52;100.00;63329.72;1021609;29;20028;-81
2021/06/24 01:50:22;;;;;;;2.30;1.55;;;;;;;-146.52;100.00;63329.72;1013351;29;20028;-80
2021/06/24 01:50:54;;;;;;;3.50;1.33;;;;;;;-146.52;100.00;63329.72;1021218;29;20099;-80
2021/06/24 01:51:25;;;;;;;2.92;1.40;;;;;;;-146.52;100.00;63329.72;1017397;29;20020;-80
2021/06/24 01:51:55;;;;;;;3.95;1.90;;;;;;;-146.52;100.00;63329.72;1024917;29;20098;-80
2021/06/24 01:52:26;;;;;;;2.85;1.60;;;;;;;-146.52;100.00;63329.72;1017254;29;20052;-80
2021/06/24 01:52:57;;;;;;;2.58;1.50;;;;;;;-146.52;100.00;63329.72;1029140;28;20362;-80
2021/06/24 01:53:27;;;;;;;4.25;1.63;;;;;;;-146.52;100.00;63329.72;1017570;29;20096;-81
2021/06/24 01:53:58;;;;;;;3.95;1.80;;;;;;;-146.52;100.00;63329.72;1021533;29;20027;-80
2021/06/24 01:54:28;;;;;;;2.75;1.33;;;;;;;-146.52;100.00;63329.72;1017420;29;20116;-80
2021/06/24 01:54:59;;;;;;;2.90;1.48;;;;;;;-146.52;100.00;63329.72;1013333;29;20127;-81
2021/06/24 01:55:34;;;;;;;3.17;1.50;;;;;;;-146.52;100.00;63329.72;1017359;29;20138;-80
2021/06/24 01:56:04;;;;;;;3.88;1.73;;;;;;;-146.52;100.00;63329.72;1012825;29;20071;-80
2021/06/24 01:56:37;;;;;;;2.45;1.40;;;;;;;-146.52;100.00;63329.72;1021537;29;20024;-80
2021/06/24 01:57:13;;;;;;;4.80;1.15;;;;;;;-146.52;100.00;63329.72;1009853;29;20028;-80
2021/06/24 01:57:43;;;;;;;1.92;1.23;;;;;;;-146.52;100.00;63329.72;1010224;29;20052;-82
2021/06/24 01:58:17;;;;;;;2.55;1.60;;;;;;;-146.52;100.00;63329.72;1013594;29;20021;-81
2021/06/24 01:58:48;;;;;;;2.85;1.65;;;;;;;-146.52;100.00;63329.72;1013723;29;20510;-82
2021/06/24 01:59:19;;;;;;;2.88;1.50;;;;;;;-146.52;100.00;63329.72;1005641;29;20123;-81
2021/06/24 01:59:50;;;;;;;3.88;1.65;;;;;;;-146.52;100.00;63329.72;1012983;29;20029;-80
2021/06/24 02:00:21;;;;;;;3.58;1.80;;;;;;;-146.52;100.00;63329.72;1021270;29;20027;-80
2021/06/24 02:00:53;;;;;;;2.25;1.63;;;;;;;-146.52;100.00;63329.72;1009616;29;20025;-83
2021/06/24 02:01:24;;;;;;;3.05;1.60;;;;;;;-146.52;100.00;63329.72;1017639;29;20402;-80
2021/06/24 02:01:54;;;;;;;4.45;1.95;;;;;;;-146.52;100.00;63329.72;1021297;29;20122;-80
2021/06/24 02:02:25;;;;;;;3.22;1.85;;;;;;;-146.52;100.00;63329.72;1013689;29;20025;-80
2021/06/24 02:02:56;;;;;;;3.08;1.60;;;;;;;-146.52;100.00;63329.72;1009887;29;20057;-82
2021/06/24 02:03:27;;;;;;;3.45;1.75;;;;;;;-146.52;100.00;63329.72;1021576;29;20027;-80
2021/06/24 02:03:58;;;;;;;4.65;1.70;;;;;;;-146.52;100.00;63329.72;1017474;29;20028;-80
2021/06/24 02:04:29;;;;;;;3.03;1.73;;;;;;;-146.52;100.00;63329.72;1025748;29;20075;-81
2021/06/24 02:05:00;;;;;;;3.47;2.00;;;;;;;-146.52;100.00;63329.72;1013340;29;20024;-80
2021/06/24 02:05:30;;;;;;;5.25;2.00;;;;;;;-146.52;100.00;63329.72;1013243;29;20046;-80
2021/06/24 02:06:01;;;;;;;3.35;1.63;;;;;;;-146.52;100.00;63329.72;1021146;29;20095;-81
2021/06/24 02:06:31;;;;;;;2.95;1.75;;;;;;;-146.52;100.00;63329.72;1016790;29;20016;-79
2021/06/24 02:07:03;;;;;;;5.45;1.85;;;;;;;-146.52;100.00;63329.72;1025038;28;20031;-81
2021/06/24 02:07:36;;;;;;;6.00;1.98;;;;;;;-146.52;100.00;63329.72;1029228;28;20078;-80
2021/06/24 02:08:17;;;;;;;3.03;1.70;;;;;;;-146.52;100.00;63329.72;1024604;29;20023;-80
2021/06/24 02:08:47;;;;;;;2.17;1.38;;;;;;;-146.52;100.00;63329.72;1024797;29;20070;-80
2021/06/24 02:09:18;;;;;;;3.47;1.50;;;;;;;-146.52;100.00;63329.72;1020867;29;20182;-82
2021/06/24 02:09:48;;;;;;;3.17;1.90;;;;;;;-146.52;100.00;63329.72;1016960;29;20515;-80
2021/06/24 02:10:19;;;;;;;2.38;1.63;;;;;;;-146.52;100.00;63329.72;1028794;28;20113;-79
2021/06/24 02:10:50;;;;;;;3.28;1.67;;;;;;;-146.52;100.00;63329.72;1013423;29;20020;-80
2021/06/24 02:11:21;;;;;;;3.88;1.80;;;;;;;-146.52;100.00;63329.72;1021066;29;20019;-80
2021/06/24 02:11:55;;;;;;;3.20;1.45;;;;;;;-146.52;100.00;63329.72;1010502;29;20548;-80
2021/06/24 02:12:26;;;;;;;2.55;1.50;;;;;;;-146.52;100.00;63329.72;1009135;29;20021;-81
2021/06/24 02:12:57;;;;;;;2.13;1.20;;;;;;;-146.52;100.00;63329.72;1013007;29;20446;-80
2021/06/24 02:13:28;;;;;;;4.25;1.95;;;;;;;-146.52;100.00;63329.72;1009304;29;20122;-80
2021/06/24 02:13:58;;;;;;;2.30;1.73;;;;;;;-146.52;100.00;63329.72;1017238;29;20394;-80
2021/06/24 02:14:29;;;;;;;2.10;1.70;;;;;;;-146.52;100.00;63329.72;1013181;29;20112;-80
2021/06/24 02:15:00;;;;;;;3.65;1.67;;;;;;;-146.52;100.00;63329.72;1020848;29;20110;-80
2021/06/24 02:15:30;;;;;;;2.35;1.40;;;;;;;-146.52;100.00;63329.72;1013017;29;20060;-79
2021/06/24 02:16:01;;;;;;;2.63;1.58;;;;;;;-146.52;100.00;63329.72;1020799;29;20114;-81
2021/06/24 02:16:31;;;;;;;5.18;2.00;;;;;;;-146.52;100.00;63329.72;1013409;29;20445;-80
2021/06/24 02:17:02;;;;;;;5.55;1.50;;;;;;;-146.52;100.00;63329.72;1017046;29;20107;-79
2021/06/24 02:17:33;;;;;;;3.03;1.60;;;;;;;-146.52;100.00;63329.72;1013348;29;20121;-81
2021/06/24 02:18:03;;;;;;;2.38;1.23;;;;;;;-146.52;100.00;63329.72;1009419;29;20156;-81
2021/06/24 02:18:34;;;;;;;5.35;1.67;;;;;;;-146.52;100.00;63329.72;1017173;29;20043;-81
2021/06/24 02:19:05;;;;;;;3.13;1.73;;;;;;;-146.52;100.00;63329.72;1009293;29;20021;-81
2021/06/24 02:19:35;;;;;;;3.15;1.63;;;;;;;-146.52;100.00;63329.72;1016904;29;20059;-82
2021/06/24 02:20:08;;;;;;;4.13;1.90;;;;;;;-146.52;100.00;63329.72;1013187;29;20024;-81
2021/06/24 02:20:39;;;;;;;3.45;1.40;;;;;;;-146.52;100.00;63329.72;1009145;29;20049;-81
2021/06/24 02:21:09;;;;;;;2.88;1.67;;;;;;;-146.52;100.00;63329.72;1012956;29;20499;-79
2021/06/24 02:21:40;;;;;;;3.75;1.70;;;;;;;-146.52;100.00;63329.72;1009283;29;20093;-79